Time;durP1;ratioP1;P1;durP2;ratioP2;P2;SDS_P1;SDS_P2;PMS_P1;PMS_P2;Temp;Humidity;BMP_temperature;BMP_pressure;BME280_temperature;BME280_humidity;BME280_pressure;Samples;Min_cycle;Max_cycle;Signal;HPM_P1;HPM_P2
2022/06/27 00:00:53;;;;;;;2.15;1.42;;;;;;;;;;4996028;28;93392;-61
2022/06/27 00:03:20;;;;;;;0.90;0.90;;;;;;;;;;4996018;28;92448;-61
2022/06/27 00:05:46;;;;;;;4.40;1.52;;;;;;;;;;4999386;28;93134;-62
2022/06/27 00:08:12;;;;;;;1.90;1.40;;;;;;;;;;4995806;28;92740;-61
2022/06/27 00:10:40;;;;;;;1.67;1.20;;;;;;;;;;4996324;28;94150;-61
2022/06/27 00:13:06;;;;;;;1.85;1.10;;;;;;;;;;4994295;28;97132;-61
2022/06/27 00:15:32;;;;;;;2.72;1.50;;;;;;;;;;4956725;28;92500;-61
2022/06/27 00:17:59;;;;;;;1.90;1.38;;;;;;;;;;4956832;28;94257;-61
2022/06/27 00:20:25;;;;;;;1.42;1.27;;;;;;;;;;4956476;28;93667;-61
2022/06/27 00:22:52;;;;;;;3.08;1.40;;;;;;;;;;4956283;28;92426;-61
2022/06/27 00:25:19;;;;;;;2.95;1.55;;;;;;;;;;4956786;28;94001;-62
2022/06/27 00:27:45;;;;;;;2.08;1.05;;;;;;;;;;4958013;28;93518;-62
2022/06/27 00:30:11;;;;;;;4.35;1.60;;;;;;;;;;4956439;28;92970;-61
2022/06/27 00:32:38;;;;;;;3.63;1.60;;;;;;;;;;4956229;28;93496;-61
2022/06/27 00:35:05;;;;;;;1.73;1.50;;;;;;;;;;4956542;28;92406;-62
2022/06/27 00:37:32;;;;;;;1.35;1.25;;;;;;;;;;4954582;28;95065;-61
2022/06/27 00:39:58;;;;;;;3.55;1.30;;;;;;;;;;4954835;28;93245;-61
2022/06/27 00:42:24;;;;;;;1.75;1.30;;;;;;;;;;4954905;28;92455;-61
2022/06/27 00:44:50;;;;;;;1.27;1.17;;;;;;;;;;4956395;28;93203;-61
2022/06/27 00:47:17;;;;;;;2.10;1.13;;;;;;;;;;4955525;28;94481;-62
2022/06/27 00:49:43;;;;;;;1.65;1.15;;;;;;;;;;4959151;28;92716;-62
2022/06/27 00:52:11;;;;;;;2.28;1.25;;;;;;;;;;4955794;28;93215;-62
2022/06/27 00:54:38;;;;;;;2.17;1.38;;;;;;;;;;4956729;28;91677;-61
2022/06/27 00:57:05;;;;;;;2.13;1.30;;;;;;;;;;4956029;28;92674;-62
2022/06/27 00:59:31;;;;;;;2.63;1.20;;;;;;;;;;4955929;28;93347;-61
2022/06/27 01:01:58;;;;;;;1.10;1.10;;;;;;;;;;4954492;28;94804;-62
2022/06/27 01:04:25;;;;;;;3.00;1.20;;;;;;;;;;4955732;28;95534;-61
2022/06/27 01:06:54;;;;;;;1.38;1.13;;;;;;;;;;4955251;28;92447;-61
2022/06/27 01:09:21;;;;;;;3.93;1.40;;;;;;;;;;4959125;28;92423;-61
2022/06/27 01:11:48;;;;;;;1.55;1.20;;;;;;;;;;4954165;28;93235;-61
2022/06/27 01:14:14;;;;;;;2.55;1.20;;;;;;;;;;4973515;28;92413;-61
2022/06/27 01:16:41;;;;;;;2.70;1.45;;;;;;;;;;4995023;28;92367;-61
2022/06/27 01:19:09;;;;;;;1.35;1.20;;;;;;;;;;4995177;28;92270;-61
2022/06/27 01:21:38;;;;;;;1.77;0.95;;;;;;;;;;4994961;28;92458;-62
2022/06/27 01:24:04;;;;;;;2.10;1.40;;;;;;;;;;4995030;28;93052;-61
2022/06/27 01:26:31;;;;;;;2.55;1.15;;;;;;;;;;4993093;28;95707;-61
2022/06/27 01:28:57;;;;;;;2.05;1.20;;;;;;;;;;4994676;28;92529;-61
2022/06/27 01:31:24;;;;;;;1.30;1.20;;;;;;;;;;4997917;28;93153;-62
2022/06/27 01:33:50;;;;;;;4.45;1.40;;;;;;;;;;4994630;28;92728;-61
2022/06/27 01:39:01;;;;;;;1.30;1.20;;;;;;;;;;4994405;28;93478;-62
2022/06/27 01:41:27;;;;;;;2.25;1.40;;;;;;;;;;4994550;28;92460;-61
2022/06/27 01:43:54;;;;;;;2.60;1.20;;;;;;;;;;4995451;28;94144;-61
2022/06/27 01:46:20;;;;;;;2.38;1.08;;;;;;;;;;4994150;28;93480;-61
2022/06/27 01:48:46;;;;;;;1.23;1.13;;;;;;;;;;4994959;28;92418;-62
2022/06/27 01:51:14;;;;;;;1.83;1.35;;;;;;;;;;4993134;28;94857;-61
2022/06/27 01:53:40;;;;;;;1.52;1.42;;;;;;;;;;4997475;28;93733;-61
2022/06/27 01:56:07;;;;;;;1.48;1.30;;;;;;;;;;4994524;28;93235;-61
2022/06/27 01:58:33;;;;;;;1.90;1.38;;;;;;;;;;4993240;28;93514;-62
2022/06/27 02:00:59;;;;;;;1.58;1.13;;;;;;;;;;4994628;28;92460;-61
2022/06/27 02:03:26;;;;;;;1.52;1.33;;;;;;;;;;4993968;28;93974;-61
2022/06/27 02:05:52;;;;;;;2.35;1.35;;;;;;;;;;4994336;28;93182;-61
2022/06/27 02:08:20;;;;;;;2.35;1.20;;;;;;;;;;4995182;28;91648;-61
2022/06/27 02:10:46;;;;;;;2.25;1.50;;;;;;;;;;4994654;28;93480;-61
2022/06/27 02:13:13;;;;;;;1.73;1.50;;;;;;;;;;4993502;28;93646;-62
2022/06/27 02:15:58;;;;;;;1.15;1.13;;;;;;;;;;4996096;28;94798;-61
2022/06/27 02:18:24;;;;;;;2.10;1.30;;;;;;;;;;4994485;28;93558;-62
2022/06/27 02:20:51;;;;;;;1.45;1.35;;;;;;;;;;4997649;28;92747;-61
2022/06/27 02:23:17;;;;;;;2.55;1.33;;;;;;;;;;4997653;28;93051;-61
2022/06/27 02:25:44;;;;;;;2.55;1.05;;;;;;;;;;4997382;28;93302;-61
2022/06/27 02:28:10;;;;;;;1.38;1.20;;;;;;;;;;4997455;28;92397;-61
2022/06/27 02:30:36;;;;;;;2.28;1.35;;;;;;;;;;4996697;28;93042;-61
2022/06/27 02:33:03;;;;;;;4.35;1.60;;;;;;;;;;4997937;28;92655;-62
2022/06/27 02:35:30;;;;;;;1.65;1.10;;;;;;;;;;4997493;28;92537;-61
2022/06/27 02:37:57;;;;;;;2.10;1.20;;;;;;;;;;5000401;28;92396;-61
2022/06/27 02:40:24;;;;;;;2.00;1.25;;;;;;;;;;4996117;28;94788;-61
2022/06/27 02:42:52;;;;;;;2.65;1.48;;;;;;;;;;4997345;28;96359;-61
2022/06/27 02:45:19;;;;;;;3.33;1.30;;;;;;;;;;4997347;28;93467;-61
2022/06/27 02:47:47;;;;;;;1.23;1.00;;;;;;;;;;4996437;28;92365;-61
2022/06/27 02:50:14;;;;;;;1.35;1.08;;;;;;;;;;4997417;28;92906;-61
2022/06/27 02:52:47;;;;;;;1.75;1.50;;;;;;;;;;4997171;28;93775;-61
2022/06/27 02:55:15;;;;;;;1.23;1.13;;;;;;;;;;4996446;28;92412;-61
2022/06/27 02:57:47;;;;;;;2.65;1.40;;;;;;;;;;5000648;28;93366;-61
2022/06/27 03:00:13;;;;;;;3.17;1.35;;;;;;;;;;4997442;28;92426;-61
2022/06/27 03:02:43;;;;;;;2.05;1.40;;;;;;;;;;4996742;28;92897;-61
2022/06/27 03:05:10;;;;;;;1.52;1.20;;;;;;;;;;4995381;28;95973;-61
2022/06/27 03:07:37;;;;;;;1.52;1.30;;;;;;;;;;4996785;28;92454;-61
2022/06/27 03:10:04;;;;;;;1.75;1.35;;;;;;;;;;4997400;28;93166;-61
2022/06/27 03:12:30;;;;;;;1.50;1.40;;;;;;;;;;4996629;28;93540;-61
2022/06/27 03:14:57;;;;;;;1.08;1.00;;;;;;;;;;4996370;28;92447;-63
2022/06/27 03:17:23;;;;;;;1.60;1.38;;;;;;;;;;4997032;28;93167;-62
2022/06/27 03:19:50;;;;;;;1.30;1.20;;;;;;;;;;4999616;28;93527;-61
2022/06/27 03:22:17;;;;;;;1.20;1.02;;;;;;;;;;4996988;28;92899;-61
2022/06/27 03:24:43;;;;;;;1.92;1.20;;;;;;;;;;4996635;28;93173;-62
2022/06/27 03:27:10;;;;;;;1.08;0.98;;;;;;;;;;4996861;28;92330;-62
2022/06/27 03:29:36;;;;;;;1.33;1.20;;;;;;;;;;4994784;28;94791;-61
2022/06/27 03:32:03;;;;;;;1.63;1.10;;;;;;;;;;4996477;28;93558;-61
2022/06/27 03:34:30;;;;;;;5.72;1.33;;;;;;;;;;4996638;28;92401;-62
2022/06/27 03:36:57;;;;;;;1.48;1.25;;;;;;;;;;4996697;28;93498;-62
2022/06/27 03:39:23;;;;;;;1.90;1.17;;;;;;;;;;4996647;28;93017;-61
2022/06/27 03:41:50;;;;;;;1.35;1.25;;;;;;;;;;4999345;28;92373;-61
2022/06/27 03:44:16;;;;;;;1.25;1.13;;;;;;;;;;4996146;28;93752;-61
2022/06/27 03:46:43;;;;;;;1.48;1.38;;;;;;;;;;4996823;28;91735;-61
2022/06/27 03:51:55;;;;;;;2.00;1.15;;;;;;;;;;4996525;28;94559;-61
2022/06/27 03:54:21;;;;;;;1.40;1.30;;;;;;;;;;4994774;28;95315;-61
2022/06/27 03:56:47;;;;;;;1.30;1.20;;;;;;;;;;4996179;28;95310;-61
2022/06/27 03:59:14;;;;;;;2.08;1.30;;;;;;;;;;4996165;28;93109;-61
2022/06/27 04:01:40;;;;;;;1.45;1.20;;;;;;;;;;4995926;28;92484;-61
2022/06/27 04:04:06;;;;;;;1.48;1.38;;;;;;;;;;4998911;28;93631;-61
2022/06/27 04:06:33;;;;;;;2.60;1.33;;;;;;;;;;4996275;28;92526;-61
2022/06/27 04:08:59;;;;;;;1.42;1.05;;;;;;;;;;4996303;28;94517;-61
2022/06/27 04:11:26;;;;;;;1.45;1.00;;;;;;;;;;4996534;28;92525;-61
2022/06/27 04:13:52;;;;;;;1.48;1.20;;;;;;;;;;4995502;28;92756;-61
2022/06/27 04:16:18;;;;;;;1.35;1.30;;;;;;;;;;4995886;28;93137;-61
2022/06/27 04:18:54;;;;;;;1.40;1.30;;;;;;;;;;4994238;28;97095;-61
2022/06/27 04:21:20;;;;;;;1.80;1.40;;;;;;;;;;4995855;28;92417;-62
2022/06/27 04:23:46;;;;;;;1.35;1.02;;;;;;;;;;4995602;28;93184;-61
2022/06/27 04:26:13;;;;;;;1.27;1.10;;;;;;;;;;4998737;28;93483;-61
2022/06/27 04:28:39;;;;;;;4.32;1.38;;;;;;;;;;4995529;28;93123;-61
2022/06/27 04:31:06;;;;;;;2.33;1.23;;;;;;;;;;4995561;28;93683;-61
2022/06/27 04:33:32;;;;;;;1.55;1.20;;;;;;;;;;4995811;28;92419;-61
2022/06/27 04:36:02;;;;;;;2.50;1.58;;;;;;;;;;4996206;28;93231;-61
2022/06/27 04:38:31;;;;;;;1.67;1.30;;;;;;;;;;4995731;28;94777;-61
2022/06/27 04:40:58;;;;;;;1.40;1.30;;;;;;;;;;4995123;28;92455;-61
2022/06/27 04:43:26;;;;;;;2.22;1.40;;;;;;;;;;4993935;28;94793;-61
2022/06/27 04:45:53;;;;;;;3.15;1.50;;;;;;;;;;4995150;28;92479;-61
2022/06/27 04:48:20;;;;;;;1.20;0.80;;;;;;;;;;4998663;28;92439;-62
2022/06/27 04:50:47;;;;;;;2.85;1.50;;;;;;;;;;4995437;28;92443;-61
2022/06/27 04:53:13;;;;;;;1.05;1.00;;;;;;;;;;4995804;28;92399;-61
2022/06/27 04:55:40;;;;;;;1.20;1.10;;;;;;;;;;4995450;28;95213;-61
2022/06/27 04:58:06;;;;;;;1.10;1.00;;;;;;;;;;4995093;28;92397;-62
2022/06/27 05:00:32;;;;;;;1.20;1.10;;;;;;;;;;4995847;28;91713;-61
2022/06/27 05:02:59;;;;;;;0.95;0.95;;;;;;;;;;4995195;28;93767;-61
2022/06/27 05:05:25;;;;;;;1.23;1.00;;;;;;;;;;4995064;28;93447;-61
2022/06/27 05:07:51;;;;;;;1.25;1.15;;;;;;;;;;4997037;28;95175;-61
2022/06/27 05:10:18;;;;;;;2.15;1.38;;;;;;;;;;4994920;28;94675;-61
2022/06/27 05:12:44;;;;;;;1.65;1.50;;;;;;;;;;4995302;28;92374;-62
2022/06/27 05:15:10;;;;;;;1.17;1.08;;;;;;;;;;4994897;28;92995;-61
2022/06/27 05:17:37;;;;;;;0.93;0.93;;;;;;;;;;4993880;28;94724;-61
2022/06/27 05:20:05;;;;;;;1.02;0.93;;;;;;;;;;4995225;28;92442;-61
2022/06/27 05:22:31;;;;;;;2.28;1.40;;;;;;;;;;4995059;28;93174;-61
2022/06/27 05:24:58;;;;;;;2.38;1.30;;;;;;;;;;4994892;28;92819;-61
2022/06/27 05:27:24;;;;;;;1.25;1.10;;;;;;;;;;4995071;28;92447;-61
2022/06/27 05:29:50;;;;;;;2.35;1.20;;;;;;;;;;4997861;28;93242;-61
2022/06/27 05:32:17;;;;;;;1.10;0.98;;;;;;;;;;4993116;28;94833;-61
2022/06/27 05:34:43;;;;;;;1.48;1.38;;;;;;;;;;4993499;28;95550;-61
2022/06/27 05:37:09;;;;;;;1.63;1.38;;;;;;;;;;4994915;28;94565;-61
2022/06/27 05:39:36;;;;;;;2.00;1.45;;;;;;;;;;4994467;28;92435;-61
2022/06/27 05:42:03;;;;;;;1.42;1.33;;;;;;;;;;4994624;28;93128;-61
2022/06/27 05:44:30;;;;;;;1.10;1.00;;;;;;;;;;4994443;28;92412;-62
2022/06/27 05:46:56;;;;;;;1.58;1.02;;;;;;;;;;4994851;28;92492;-61
2022/06/27 05:49:24;;;;;;;1.35;1.10;;;;;;;;;;4994972;28;93618;-61
2022/06/27 05:51:52;;;;;;;1.55;1.20;;;;;;;;;;4997677;28;93611;-61
2022/06/27 05:54:18;;;;;;;1.27;1.20;;;;;;;;;;4997982;28;92773;-62
2022/06/27 05:56:45;;;;;;;1.65;1.55;;;;;;;;;;4996303;28;95643;-61
2022/06/27 05:59:12;;;;;;;2.28;1.30;;;;;;;;;;4998240;28;92415;-61
2022/06/27 06:01:40;;;;;;;1.00;0.90;;;;;;;;;;4998154;28;93157;-61
2022/06/27 06:04:06;;;;;;;1.48;1.30;;;;;;;;;;4997731;28;94616;-61
2022/06/27 06:06:33;;;;;;;1.48;1.30;;;;;;;;;;4998146;28;92599;-62
2022/06/27 06:09:01;;;;;;;1.40;1.30;;;;;;;;;;4997933;28;92900;-61
2022/06/27 06:11:27;;;;;;;1.83;1.45;;;;;;;;;;4997698;28;93929;-61
2022/06/27 06:13:54;;;;;;;3.10;1.10;;;;;;;;;;5001436;28;91776;-62
2022/06/27 06:16:20;;;;;;;1.10;1.00;;;;;;;;;;4997866;28;94595;-61
2022/06/27 06:18:52;;;;;;;3.55;1.60;;;;;;;;;;4997725;28;92460;-61
2022/06/27 06:21:22;;;;;;;1.70;1.30;;;;;;;;;;4996453;28;94803;-62
2022/06/27 06:23:51;;;;;;;2.25;1.27;;;;;;;;;;4997880;28;94469;-62
2022/06/27 06:26:17;;;;;;;1.58;1.10;;;;;;;;;;4997771;28;92538;-61
2022/06/27 06:28:44;;;;;;;1.83;1.10;;;;;;;;;;4997750;28;92984;-61
2022/06/27 06:31:13;;;;;;;1.30;1.20;;;;;;;;;;4997473;28;93558;-61
2022/06/27 06:33:39;;;;;;;1.88;1.58;;;;;;;;;;4997352;28;92673;-61
2022/06/27 06:36:06;;;;;;;1.42;1.25;;;;;;;;;;5000435;28;93173;-61
2022/06/27 06:38:32;;;;;;;1.23;1.13;;;;;;;;;;4997982;28;91650;-61
2022/06/27 06:40:58;;;;;;;1.13;1.05;;;;;;;;;;4997612;28;92413;-61
2022/06/27 06:43:25;;;;;;;1.80;1.30;;;;;;;;;;4997463;28;94889;-61
2022/06/27 06:45:51;;;;;;;1.15;1.15;;;;;;;;;;4995559;28;94885;-61
2022/06/27 06:48:18;;;;;;;1.40;1.30;;;;;;;;;;4997415;28;95456;-61
2022/06/27 06:50:44;;;;;;;1.48;1.33;;;;;;;;;;4997031;28;93596;-62
2022/06/27 06:53:11;;;;;;;1.20;1.08;;;;;;;;;;4997463;28;92530;-61
2022/06/27 06:55:37;;;;;;;1.45;1.30;;;;;;;;;;4997119;28;93276;-61
2022/06/27 06:58:03;;;;;;;1.40;1.15;;;;;;;;;;5000259;28;93622;-61
2022/06/27 07:00:30;;;;;;;1.17;1.05;;;;;;;;;;4997392;28;93955;-61
2022/06/27 07:02:58;;;;;;;2.85;1.40;;;;;;;;;;4997057;28;91860;-61
2022/06/27 07:05:25;;;;;;;1.73;1.35;;;;;;;;;;4996380;28;92487;-61
2022/06/27 07:07:52;;;;;;;3.08;1.60;;;;;;;;;;4997357;28;94223;-61
2022/06/27 07:10:19;;;;;;;1.65;1.33;;;;;;;;;;4995479;28;95925;-61
2022/06/27 07:12:46;;;;;;;1.92;1.40;;;;;;;;;;4997091;28;92427;-61
2022/06/27 07:15:13;;;;;;;1.30;1.17;;;;;;;;;;4996481;28;93250;-61
2022/06/27 07:17:40;;;;;;;1.85;1.30;;;;;;;;;;4999720;28;93762;-61
2022/06/27 07:20:07;;;;;;;1.48;1.38;;;;;;;;;;4996853;28;93106;-61
2022/06/27 07:22:34;;;;;;;1.13;1.10;;;;;;;;;;4996623;28;93417;-61
2022/06/27 07:25:00;;;;;;;3.17;1.55;;;;;;;;;;4996916;28;92442;-61
2022/06/27 07:27:27;;;;;;;4.40;1.75;;;;;;;;;;4997316;28;93205;-61
2022/06/27 07:29:53;;;;;;;1.40;1.30;;;;;;;;;;4996208;28;94526;-61
2022/06/27 07:32:20;;;;;;;1.30;1.20;;;;;;;;;;4996705;28;92344;-61
2022/06/27 07:34:47;;;;;;;1.52;1.38;;;;;;;;;;4995243;28;94857;-63
2022/06/27 07:37:14;;;;;;;1.60;1.25;;;;;;;;;;4996622;28;94255;-61
2022/06/27 07:39:40;;;;;;;2.35;1.45;;;;;;;;;;4999871;28;92378;-61
2022/06/27 07:42:07;;;;;;;1.42;1.33;;;;;;;;;;4995225;28;94751;-61
2022/06/27 07:44:34;;;;;;;3.70;1.30;;;;;;;;;;4996005;28;92572;-62
2022/06/27 07:47:03;;;;;;;1.95;1.35;;;;;;;;;;4996424;28;93538;-61
2022/06/27 07:49:30;;;;;;;1.63;1.27;;;;;;;;;;4996289;28;93587;-61
2022/06/27 07:51:57;;;;;;;2.10;1.40;;;;;;;;;;4996793;28;91651;-61
2022/06/27 07:54:24;;;;;;;3.42;1.20;;;;;;;;;;4996621;28;92488;-61
2022/06/27 07:56:52;;;;;;;4.35;1.35;;;;;;;;;;4996061;28;93289;-61
2022/06/27 07:59:28;;;;;;;1.60;1.50;;;;;;;;;;4993606;28;95432;-61
2022/06/27 08:01:54;;;;;;;2.00;1.52;;;;;;;;;;4998947;28;95562;-61
2022/06/27 08:04:21;;;;;;;2.40;1.42;;;;;;;;;;4995928;28;92490;-61
2022/06/27 08:06:49;;;;;;;2.10;1.50;;;;;;;;;;4995766;28;93437;-61
2022/06/27 08:09:18;;;;;;;2.33;1.20;;;;;;;;;;4995960;28;93674;-61
2022/06/27 08:11:45;;;;;;;2.97;1.80;;;;;;;;;;4996076;28;92475;-61
2022/06/27 08:14:12;;;;;;;1.35;1.23;;;;;;;;;;4995632;28;93407;-61
2022/06/27 08:16:40;;;;;;;1.40;1.30;;;;;;;;;;4995331;28;92684;-61
2022/06/27 08:19:07;;;;;;;2.63;1.40;;;;;;;;;;4994554;28;92508;-61
2022/06/27 08:21:35;;;;;;;2.20;1.42;;;;;;;;;;4996117;28;93134;-61
2022/06/27 08:24:03;;;;;;;2.97;1.52;;;;;;;;;;4997007;28;96141;-61
2022/06/27 08:26:30;;;;;;;1.20;1.20;;;;;;;;;;4995868;28;95952;-61
2022/06/27 08:28:58;;;;;;;2.33;1.45;;;;;;;;;;4995645;28;94064;-61
2022/06/27 08:31:25;;;;;;;2.15;1.50;;;;;;;;;;4995637;28;92555;-61
2022/06/27 08:33:55;;;;;;;3.08;1.40;;;;;;;;;;4995479;28;93135;-61
2022/06/27 08:36:23;;;;;;;1.60;1.50;;;;;;;;;;4995441;28;93455;-61
2022/06/27 08:38:50;;;;;;;2.83;1.30;;;;;;;;;;4995651;28;92760;-61
2022/06/27 08:41:17;;;;;;;1.88;1.50;;;;;;;;;;4996060;28;93073;-61
2022/06/27 08:43:45;;;;;;;2.88;1.55;;;;;;;;;;4995486;28;93236;-61
2022/06/27 08:46:15;;;;;;;5.53;1.52;;;;;;;;;;4998403;28;92420;-61
2022/06/27 08:48:42;;;;;;;1.52;1.20;;;;;;;;;;4993771;28;96021;-61
2022/06/27 08:51:09;;;;;;;1.40;1.30;;;;;;;;;;4995218;28;92439;-61
2022/06/27 08:53:38;;;;;;;1.92;1.48;;;;;;;;;;4995479;28;93028;-61
2022/06/27 08:56:06;;;;;;;1.10;1.10;;;;;;;;;;4995320;28;93289;-61
2022/06/27 08:58:32;;;;;;;1.73;1.25;;;;;;;;;;4995237;28;92508;-61
2022/06/27 09:00:58;;;;;;;1.60;1.40;;;;;;;;;;4995231;28;92791;-61
2022/06/27 09:03:25;;;;;;;1.60;1.40;;;;;;;;;;4995047;28;93414;-61
2022/06/27 09:05:57;;;;;;;3.55;1.40;;;;;;;;;;4993741;28;91621;-61
2022/06/27 09:08:25;;;;;;;1.70;1.20;;;;;;;;;;4998441;28;92470;-61
2022/06/27 09:10:52;;;;;;;2.20;1.30;;;;;;;;;;4994957;28;92478;-63
2022/06/27 09:13:20;;;;;;;2.78;1.75;;;;;;;;;;4992551;28;95168;-62
2022/06/27 09:15:49;;;;;;;1.27;1.17;;;;;;;;;;4994936;28;93955;-61
2022/06/27 09:18:17;;;;;;;2.07;1.50;;;;;;;;;;4994824;28;92593;-62
2022/06/27 09:21:00;;;;;;;5.07;1.60;;;;;;;;;;4995411;28;94138;-62
2022/06/27 09:23:26;;;;;;;2.15;1.50;;;;;;;;;;4995045;28;92515;-61
2022/06/27 09:25:56;;;;;;;1.65;1.55;;;;;;;;;;4995031;28;92355;-61
2022/06/27 09:28:23;;;;;;;;;;;;;;;;;;4997846;28;92792;-61
2022/06/27 09:30:52;;;;;;;1.45;1.25;;;;;;;;;;4996018;28;118993;-61
2022/06/27 09:33:18;;;;;;;3.05;1.80;;;;;;;;;;4994928;28;93487;-62
2022/06/27 09:35:46;;;;;;;1.55;1.35;;;;;;;;;;4994796;28;93234;-61
2022/06/27 09:38:13;;;;;;;1.77;1.50;;;;;;;;;;4993043;28;94894;-62
2022/06/27 09:40:41;;;;;;;2.80;1.60;;;;;;;;;;4994604;28;94400;-61
2022/06/27 09:43:08;;;;;;;3.00;1.40;;;;;;;;;;4994481;28;93570;-61
2022/06/27 09:45:35;;;;;;;1.65;1.30;;;;;;;;;;4994692;28;92718;-62
2022/06/27 09:48:04;;;;;;;3.88;1.48;;;;;;;;;;4994666;28;93198;-61
2022/06/27 09:50:35;;;;;;;1.25;1.10;;;;;;;;;;4997572;28;93294;-61
2022/06/27 09:53:02;;;;;;;3.10;1.50;;;;;;;;;;4994665;28;92846;-61
2022/06/27 09:55:29;;;;;;;3.30;1.63;;;;;;;;;;4994903;28;92648;-61
2022/06/27 09:57:56;;;;;;;2.38;1.40;;;;;;;;;;4993273;28;92495;-61
2022/06/27 10:00:23;;;;;;;1.40;1.30;;;;;;;;;;4994470;28;93259;-61
2022/06/27 10:02:49;;;;;;;2.35;1.52;;;;;;;;;;4992547;28;95816;-61
2022/06/27 10:05:16;;;;;;;1.80;1.35;;;;;;;;;;4994301;28;92535;-61
2022/06/27 10:07:44;;;;;;;1.30;1.20;;;;;;;;;;4994567;28;93131;-61
2022/06/27 10:10:10;;;;;;;2.67;1.50;;;;;;;;;;4994603;28;94596;-61
2022/06/27 10:12:37;;;;;;;1.95;1.35;;;;;;;;;;4997317;28;92501;-61
2022/06/27 10:15:06;;;;;;;2.05;1.52;;;;;;;;;;4994007;28;92458;-61
2022/06/27 10:17:35;;;;;;;1.67;1.17;;;;;;;;;;4994271;28;92724;-61
2022/06/27 10:20:15;;;;;;;1.30;1.20;;;;;;;;;;4994915;28;93494;-61
2022/06/27 10:22:42;;;;;;;2.17;1.40;;;;;;;;;;4994561;28;93581;-61
2022/06/27 10:25:26;;;;;;;1.50;1.40;;;;;;;;;;4994346;28;92443;-61
2022/06/27 10:28:14;;;;;;;6.05;1.25;;;;;;;;;;4992711;28;95121;-61
2022/06/27 10:30:47;;;;;;;1.85;1.10;;;;;;;;;;4994202;28;93266;-61
2022/06/27 10:33:26;;;;;;;2.90;1.40;;;;;;;;;;4994128;28;92615;-61
2022/06/27 10:35:59;;;;;;;1.45;1.35;;;;;;;;;;4997126;28;93313;-61
2022/06/27 10:38:26;;;;;;;2.42;1.42;;;;;;;;;;4994048;28;92459;-61
2022/06/27 10:40:56;;;;;;;2.08;1.60;;;;;;;;;;4996607;28;92998;-61
2022/06/27 10:43:42;;;;;;;2.53;1.20;;;;;;;;;;4997137;28;93876;-62
2022/06/27 10:46:09;;;;;;;1.30;1.20;;;;;;;;;;4998095;28;91706;-61
2022/06/27 10:48:48;;;;;;;1.95;1.40;;;;;;;;;;4997486;28;92695;-61
2022/06/27 10:51:17;;;;;;;1.45;1.20;;;;;;;;;;4997302;28;93239;-61
2022/06/27 10:53:44;;;;;;;2.73;1.20;;;;;;;;;;4995834;28;94830;-61
2022/06/27 10:56:26;;;;;;;1.58;1.30;;;;;;;;;;4996992;28;95566;-61
2022/06/27 10:58:52;;;;;;;2.05;1.30;;;;;;;;;;5000073;28;94071;-61
2022/06/27 11:01:19;;;;;;;1.30;1.17;;;;;;;;;;4997369;28;93162;-61
2022/06/27 11:03:46;;;;;;;1.27;1.15;;;;;;;;;;4996429;28;93514;-61
2022/06/27 11:06:15;;;;;;;3.58;1.60;;;;;;;;;;4997206;28;92429;-61
2022/06/27 11:08:42;;;;;;;1.65;1.50;;;;;;;;;;4996976;28;93378;-61
2022/06/27 11:11:14;;;;;;;3.03;1.20;;;;;;;;;;4997508;28;92584;-61
2022/06/27 11:13:44;;;;;;;1.55;1.13;;;;;;;;;;4996598;28;92278;-61
2022/06/27 11:16:14;;;;;;;2.53;1.50;;;;;;;;;;4996965;28;92973;-61
2022/06/27 11:18:43;;;;;;;2.50;1.60;;;;;;;;;;4995290;28;97012;-61
2022/06/27 11:21:10;;;;;;;1.65;1.10;;;;;;;;;;5000159;28;92645;-61
2022/06/27 11:23:51;;;;;;;1.48;1.27;;;;;;;;;;4996679;28;93503;-61
2022/06/27 11:26:18;;;;;;;2.20;1.50;;;;;;;;;;4996834;28;92393;-61
2022/06/27 11:34:26;;;;;;;2.28;1.58;;;;;;;;;;4996355;28;92443;-61
2022/06/27 11:36:53;;;;;;;1.42;1.33;;;;;;;;;;4996236;28;91812;-61
2022/06/27 11:39:38;;;;;;;2.13;1.30;;;;;;;;;;4996569;28;93275;-61
2022/06/27 11:42:11;;;;;;;1.92;1.50;;;;;;;;;;4999580;28;92966;-61
2022/06/27 11:44:39;;;;;;;1.42;1.15;;;;;;;;;;4994557;28;96186;-61
2022/06/27 11:47:06;;;;;;;2.65;1.27;;;;;;;;;;4996723;28;92380;-61
2022/06/27 11:49:37;;;;;;;2.60;1.40;;;;;;;;;;4996245;28;93467;-61
2022/06/27 11:52:10;;;;;;;2.10;1.30;;;;;;;;;;4996170;28;93382;-61
2022/06/27 11:54:43;;;;;;;2.15;1.30;;;;;;;;;;4996499;28;92389;-61
2022/06/27 11:57:21;;;;;;;1.92;1.50;;;;;;;;;;4996995;28;92319;-61
2022/06/27 11:59:49;;;;;;;1.75;1.40;;;;;;;;;;4995984;28;93797;-61
2022/06/27 12:02:29;;;;;;;2.97;1.48;;;;;;;;;;4997016;28;91690;-62
2022/06/27 12:04:55;;;;;;;;;;;;;;;;;;4999257;28;92816;-61
2022/06/27 12:07:21;;;;;;;2.35;1.48;;;;;;;;;;4996837;28;116592;-61
2022/06/27 12:09:49;;;;;;;2.58;1.35;;;;;;;;;;4994485;28;94864;-61
2022/06/27 12:12:19;;;;;;;1.80;1.52;;;;;;;;;;4994766;28;93330;-61
2022/06/27 12:14:47;;;;;;;2.45;1.55;;;;;;;;;;4978089;28;92794;-61
2022/06/27 12:17:13;;;;;;;3.78;1.58;;;;;;;;;;4995608;28;94610;-61
2022/06/27 12:19:41;;;;;;;1.80;1.23;;;;;;;;;;4995747;28;93449;-62
2022/06/27 12:22:09;;;;;;;3.60;1.50;;;;;;;;;;4996015;28;92435;-61
2022/06/27 12:24:55;;;;;;;1.40;1.30;;;;;;;;;;4996029;28;94970;-61
2022/06/27 12:27:22;;;;;;;3.38;1.50;;;;;;;;;;4999260;28;91942;-61
2022/06/27 12:29:48;;;;;;;1.63;1.17;;;;;;;;;;4995375;28;92827;-62
2022/06/27 12:32:14;;;;;;;1.60;1.38;;;;;;;;;;4995941;28;94388;-61
2022/06/27 12:34:41;;;;;;;4.75;1.52;;;;;;;;;;4994083;28;94909;-62
2022/06/27 12:37:07;;;;;;;2.28;1.70;;;;;;;;;;4995386;28;95838;-62
2022/06/27 12:39:34;;;;;;;2.47;1.42;;;;;;;;;;4995797;28;94298;-61
2022/06/27 12:42:00;;;;;;;3.33;1.38;;;;;;;;;;4995708;28;92697;-61
2022/06/27 12:44:27;;;;;;;1.42;1.33;;;;;;;;;;4993453;28;93161;-61
2022/06/27 12:46:53;;;;;;;2.88;1.70;;;;;;;;;;4991579;28;93237;-61
2022/06/27 12:49:22;;;;;;;1.58;1.48;;;;;;;;;;4998553;28;92377;-61
2022/06/27 12:51:49;;;;;;;1.65;1.30;;;;;;;;;;4996048;28;94067;-61
2022/06/27 12:54:15;;;;;;;2.08;1.55;;;;;;;;;;4995610;28;92487;-61
2022/06/27 12:56:42;;;;;;;1.50;1.40;;;;;;;;;;4995308;28;93208;-61
2022/06/27 12:59:08;;;;;;;2.08;1.30;;;;;;;;;;4991917;28;96882;-62
2022/06/27 13:01:34;;;;;;;1.45;1.35;;;;;;;;;;4995567;28;92525;-61
2022/06/27 13:04:01;;;;;;;1.52;1.42;;;;;;;;;;4994424;28;92355;-61
2022/06/27 13:06:27;;;;;;;1.50;1.40;;;;;;;;;;4995124;28;94751;-61
2022/06/27 13:08:54;;;;;;;2.45;1.35;;;;;;;;;;4995780;28;92512;-61
2022/06/27 13:11:24;;;;;;;1.93;1.23;;;;;;;;;;4997151;28;93552;-61
2022/06/27 13:13:50;;;;;;;1.50;1.20;;;;;;;;;;4994997;28;92858;-61
2022/06/27 13:16:16;;;;;;;1.42;1.33;;;;;;;;;;4995530;28;93196;-61
2022/06/27 13:18:43;;;;;;;2.08;1.40;;;;;;;;;;4995000;28;94345;-61
2022/06/27 13:21:09;;;;;;;2.60;1.60;;;;;;;;;;4995418;28;92435;-62
2022/06/27 13:23:35;;;;;;;2.13;1.27;;;;;;;;;;4992401;28;94793;-61
2022/06/27 13:26:22;;;;;;;3.00;1.67;;;;;;;;;;4994663;28;95702;-61
2022/06/27 13:28:48;;;;;;;1.50;1.20;;;;;;;;;;4995101;28;92463;-61
2022/06/27 13:31:14;;;;;;;2.47;1.63;;;;;;;;;;4997994;28;92469;-61
2022/06/27 13:33:41;;;;;;;1.88;1.33;;;;;;;;;;4995051;28;92406;-62
2022/06/27 13:36:07;;;;;;;2.05;1.40;;;;;;;;;;4994771;28;92871;-61
2022/06/27 13:38:33;;;;;;;2.30;1.48;;;;;;;;;;4994713;28;93492;-63
2022/06/27 13:41:00;;;;;;;1.92;1.73;;;;;;;;;;4995713;28;92089;-61
2022/06/27 13:43:26;;;;;;;2.60;1.40;;;;;;;;;;4994931;28;93603;-61
2022/06/27 13:45:53;;;;;;;1.77;1.50;;;;;;;;;;4994732;28;93243;-61
2022/06/27 13:48:19;;;;;;;1.48;1.38;;;;;;;;;;4993147;28;94870;-61
2022/06/27 13:50:45;;;;;;;1.50;1.40;;;;;;;;;;4994896;28;96698;-61
2022/06/27 13:53:11;;;;;;;1.60;1.40;;;;;;;;;;4997299;28;93429;-61
2022/06/27 13:55:38;;;;;;;2.17;1.50;;;;;;;;;;4994894;28;94248;-61
2022/06/27 13:58:05;;;;;;;1.55;1.45;;;;;;;;;;4994503;28;94020;-61
2022/06/27 14:00:48;;;;;;;1.58;1.10;;;;;;;;;;4994467;28;92488;-61
2022/06/27 14:03:14;;;;;;;1.38;1.27;;;;;;;;;;4994343;28;93441;-61
2022/06/27 14:05:41;;;;;;;2.20;1.70;;;;;;;;;;4994508;28;92772;-61
2022/06/27 14:08:07;;;;;;;1.63;1.52;;;;;;;;;;4994744;28;92406;-61
2022/06/27 14:10:33;;;;;;;2.30;1.25;;;;;;;;;;4994282;28;92907;-61
2022/06/27 14:13:00;;;;;;;2.65;1.58;;;;;;;;;;4992581;28;95785;-61
2022/06/27 14:15:26;;;;;;;1.80;1.20;;;;;;;;;;5000674;28;92399;-61
2022/06/27 14:17:54;;;;;;;1.58;1.35;;;;;;;;;;4997851;28;94294;-61
2022/06/27 14:20:21;;;;;;;2.45;1.52;;;;;;;;;;4997709;28;92439;-61
2022/06/27 14:22:47;;;;;;;2.03;1.60;;;;;;;;;;4997961;28;93487;-61
2022/06/27 14:25:14;;;;;;;1.63;1.40;;;;;;;;;;4997473;28;93315;-62
2022/06/27 14:27:40;;;;;;;1.95;1.40;;;;;;;;;;4997919;28;92455;-61
2022/06/27 14:30:07;;;;;;;2.03;1.30;;;;;;;;;;4998345;28;92823;-62
2022/06/27 14:32:33;;;;;;;2.03;1.40;;;;;;;;;;4997418;28;93317;-61
2022/06/27 14:35:19;;;;;;;2.05;1.50;;;;;;;;;;4996708;28;93481;-61
2022/06/27 14:37:46;;;;;;;1.73;1.30;;;;;;;;;;4999001;28;94748;-61
2022/06/27 14:40:12;;;;;;;2.60;1.60;;;;;;;;;;4997609;28;92528;-61
2022/06/27 14:42:38;;;;;;;2.47;1.40;;;;;;;;;;4997628;28;93500;-62
2022/06/27 14:45:05;;;;;;;2.13;1.48;;;;;;;;;;4997276;28;93479;-61
2022/06/27 14:47:32;;;;;;;2.55;1.30;;;;;;;;;;4997113;28;92494;-61
2022/06/27 14:49:58;;;;;;;1.98;1.52;;;;;;;;;;4997414;28;93028;-61
2022/06/27 14:52:24;;;;;;;3.80;1.45;;;;;;;;;;4997080;28;93795;-61
2022/06/27 14:54:51;;;;;;;1.55;1.15;;;;;;;;;;4997896;28;91697;-62
2022/06/27 14:57:17;;;;;;;2.20;1.50;;;;;;;;;;4997217;28;92521;-61